Time;durP1;ratioP1;P1;durP2;ratioP2;P2;SDS_P1;SDS_P2;PMS_P1;PMS_P2;Temp;Humidity;BMP_temperature;BMP_pressure;BME280_temperature;BME280_humidity;BME280_pressure;Samples;Min_cycle;Max_cycle;Signal;HPM_P1;HPM_P2
2022/10/27 00:01:36;;;;;;;;;;;15.80;99.90;;;;;;5079813;28;20401;-73
2022/10/27 00:04:01;;;;;;;;;;;15.80;99.90;;;;;;5084242;28;19913;-73
2022/10/27 00:06:27;;;;;;;;;;;15.80;99.90;;;;;;5084135;28;20346;-71
2022/10/27 00:08:53;;;;;;;;;;;15.70;99.90;;;;;;5063829;28;19917;-70
2022/10/27 00:11:18;;;;;;;;;;;15.70;99.90;;;;;;5085953;28;19912;-72
2022/10/27 00:13:47;;;;;;;;;;;15.70;99.90;;;;;;5085369;28;19955;-72
2022/10/27 00:16:16;;;;;;;;;;;15.60;99.90;;;;;;5082432;28;20009;-73
2022/10/27 00:18:43;;;;;;;;;;;15.60;99.90;;;;;;5048031;28;19916;-72
2022/10/27 00:21:13;;;;;;;;;;;15.50;99.90;;;;;;5071370;28;19987;-73
2022/10/27 00:23:39;;;;;;;;;;;15.60;99.90;;;;;;5075286;28;19977;-73
2022/10/27 00:26:09;;;;;;;;;;;15.50;99.90;;;;;;5084646;28;19915;-73
2022/10/27 00:28:35;;;;;;;;;;;15.60;99.90;;;;;;5072321;28;19943;-72
2022/10/27 00:31:05;;;;;;;;;;;15.50;99.90;;;;;;5071592;28;19971;-73
2022/10/27 00:33:31;;;;;;;;;;;15.60;99.90;;;;;;5079607;28;19920;-72
2022/10/27 00:36:04;;;;;;;;;;;15.60;99.90;;;;;;5057565;28;19935;-73
2022/10/27 00:38:30;;;;;;;;;;;15.60;99.90;;;;;;5079769;28;19921;-75
2022/10/27 00:40:56;;;;;;;;;;;15.50;99.90;;;;;;5068311;28;19936;-71
2022/10/27 00:43:29;;;;;;;;;;;15.50;99.90;;;;;;5084054;28;20271;-72
2022/10/27 00:45:58;;;;;;;;;;;15.60;99.90;;;;;;5068110;28;20009;-76
2022/10/27 00:48:24;;;;;;;;;;;15.50;99.90;;;;;;5082611;28;19930;-73
2022/10/27 00:50:50;;;;;;;;;;;15.40;99.90;;;;;;5089100;28;19926;-72
2022/10/27 00:53:16;;;;;;;;;;;15.40;99.90;;;;;;5081837;28;19991;-72
2022/10/27 00:55:42;;;;;;;;;;;15.30;99.90;;;;;;5082574;28;20365;-72
2022/10/27 00:58:13;;;;;;;;;;;15.30;99.90;;;;;;5075460;28;20341;-71
2022/10/27 01:00:41;;;;;;;;;;;15.30;99.90;;;;;;5060554;28;19913;-72
2022/10/27 01:03:07;;;;;;;;;;;15.30;99.90;;;;;;5075946;28;19908;-71
2022/10/27 01:05:33;;;;;;;;;;;15.30;99.90;;;;;;5078284;28;20109;-71
2022/10/27 01:08:01;;;;;;;;;;;15.20;99.90;;;;;;5079306;28;19916;-72
2022/10/27 01:10:27;;;;;;;;;;;15.10;99.90;;;;;;5076160;28;19922;-72
2022/10/27 01:12:54;;;;;;;;;;;15.10;99.90;;;;;;5085284;28;20356;-72
2022/10/27 01:15:21;;;;;;;;;;;15.30;99.90;;;;;;5082634;28;19923;-72
2022/10/27 01:17:50;;;;;;;;;;;15.30;99.90;;;;;;5081348;28;19912;-72
2022/10/27 01:20:33;;;;;;;;;;;15.30;99.90;;;;;;5061521;28;19913;-72
2022/10/27 01:23:05;;;;;;;;;;;15.30;99.90;;;;;;5087578;28;19962;-72
2022/10/27 01:25:49;;;;;;;;;;;15.30;99.90;;;;;;5072904;28;19964;-72
2022/10/27 01:28:21;;;;;;;;;;;15.40;99.90;;;;;;5057034;28;19909;-72
2022/10/27 01:30:50;;;;;;;;;;;15.30;99.90;;;;;;5072169;28;19948;-71
2022/10/27 01:33:21;;;;;;;;;;;15.20;99.90;;;;;;5077242;28;20007;-69
2022/10/27 01:35:49;;;;;;;;;;;15.20;99.90;;;;;;5071304;28;19967;-72
2022/10/27 01:38:18;;;;;;;;;;;15.20;99.90;;;;;;5066814;28;19994;-71
2022/10/27 01:41:10;;;;;;;;;;;15.20;99.90;;;;;;5063800;28;19912;-72
2022/10/27 01:43:36;;;;;;;;;;;15.30;99.90;;;;;;5061572;28;20721;-72
2022/10/27 01:46:04;;;;;;;;;;;15.20;99.90;;;;;;5064844;28;20050;-72
2022/10/27 01:48:34;;;;;;;;;;;15.20;99.90;;;;;;5068690;28;19917;-72
2022/10/27 01:50:59;;;;;;;;;;;15.20;99.90;;;;;;5056783;28;19932;-72
2022/10/27 01:53:26;;;;;;;;;;;15.10;99.90;;;;;;5065723;28;19928;-69
2022/10/27 01:55:51;;;;;;;;;;;15.20;99.90;;;;;;5055296;28;19916;-72
2022/10/27 01:58:27;;;;;;;;;;;15.20;99.90;;;;;;5091048;28;20270;-72
2022/10/27 02:01:11;;;;;;;;;;;15.30;99.90;;;;;;5053538;28;19920;-72
2022/10/27 02:03:49;;;;;;;;;;;15.40;99.90;;;;;;5047910;28;19921;-69
2022/10/27 02:06:26;;;;;;;;;;;15.40;99.90;;;;;;5064805;28;19958;-71
2022/10/27 02:08:53;;;;;;;;;;;15.40;99.90;;;;;;5046883;28;19925;-72
2022/10/27 02:11:19;;;;;;;;;;;15.30;99.90;;;;;;5065553;28;19921;-72
2022/10/27 02:13:45;;;;;;;;;;;15.30;99.90;;;;;;5065603;28;20460;-72
2022/10/27 02:16:18;;;;;;;;;;;15.20;99.90;;;;;;5064493;28;19916;-70
2022/10/27 02:18:46;;;;;;;;;;;15.20;99.90;;;;;;5060265;28;19917;-71
2022/10/27 02:21:13;;;;;;;;;;;15.20;99.90;;;;;;5079140;28;20314;-74
2022/10/27 02:23:40;;;;;;;;;;;15.20;99.90;;;;;;5056001;28;19913;-72
2022/10/27 02:26:35;;;;;;;;;;;15.30;99.90;;;;;;5065511;28;19963;-72
2022/10/27 02:29:07;;;;;;;;;;;15.40;99.90;;;;;;5052639;28;19917;-72
2022/10/27 02:31:37;;;;;;;;;;;15.30;99.90;;;;;;5082169;28;20406;-71
2022/10/27 02:34:03;;;;;;;;;;;15.30;99.90;;;;;;5083359;28;19919;-73
2022/10/27 02:36:29;;;;;;;;;;;15.20;99.90;;;;;;5087468;28;19912;-73
2022/10/27 02:38:55;;;;;;;;;;;15.20;99.90;;;;;;5077252;28;19913;-73
2022/10/27 02:41:21;;;;;;;;;;;15.20;99.90;;;;;;5080925;28;19979;-73
2022/10/27 02:43:46;;;;;;;;;;;15.20;99.90;;;;;;5072298;28;19917;-71
2022/10/27 02:46:12;;;;;;;;;;;15.20;99.90;;;;;;5086688;28;19912;-72
2022/10/27 02:48:38;;;;;;;;;;;15.20;99.90;;;;;;5088532;28;19908;-74
2022/10/27 02:51:03;;;;;;;;;;;15.30;99.90;;;;;;5064550;28;19920;-72
2022/10/27 02:53:29;;;;;;;;;;;15.30;99.90;;;;;;5089568;28;19916;-72
2022/10/27 02:55:55;;;;;;;;;;;15.30;99.90;;;;;;5082450;28;20366;-72
2022/10/27 02:58:21;;;;;;;;;;;15.30;99.90;;;;;;5079978;28;20305;-72
2022/10/27 03:00:46;;;;;;;;;;;15.30;99.90;;;;;;5060651;28;20429;-72
2022/10/27 03:03:12;;;;;;;;;;;15.30;99.90;;;;;;5084929;28;19913;-72
2022/10/27 03:05:38;;;;;;;;;;;15.30;99.90;;;;;;5083375;28;19995;-72
2022/10/27 03:08:03;;;;;;;;;;;15.20;99.90;;;;;;5081623;28;19924;-72
2022/10/27 03:10:29;;;;;;;;;;;15.10;99.90;;;;;;5086398;28;20381;-73
2022/10/27 03:12:55;;;;;;;;;;;15.10;99.90;;;;;;5094372;28;20384;-73
2022/10/27 03:15:21;;;;;;;;;;;15.10;99.90;;;;;;5088350;28;20270;-72
2022/10/27 03:17:47;;;;;;;;;;;15.20;99.90;;;;;;5059217;28;20378;-72
2022/10/27 03:23:30;;;;;;;;;;;15.10;99.90;;;;;;4988389;28;19980;-73
2022/10/27 03:25:56;;;;;;;;;;;14.90;99.90;;;;;;5007785;28;19917;-72
2022/10/27 03:28:21;;;;;;;;;;;14.90;99.90;;;;;;5074900;28;19916;-72
2022/10/27 03:30:47;;;;;;;;;;;14.90;99.90;;;;;;5082106;28;20018;-72
2022/10/27 03:33:13;;;;;;;;;;;14.90;99.90;;;;;;5082709;28;19939;-70
2022/10/27 03:35:38;;;;;;;;;;;15.00;99.90;;;;;;5080446;28;19920;-74
2022/10/27 03:38:04;;;;;;;;;;;15.00;99.90;;;;;;5083316;28;19912;-73
2022/10/27 03:40:30;;;;;;;;;;;15.00;99.90;;;;;;5081741;28;19919;-72
2022/10/27 03:42:59;;;;;;;;;;;15.00;99.90;;;;;;5067023;28;19912;-72
2022/10/27 03:45:25;;;;;;;;;;;15.00;99.90;;;;;;5077699;28;19988;-72
2022/10/27 03:47:58;;;;;;;;;;;14.90;99.90;;;;;;5068040;28;19916;-75
2022/10/27 03:50:23;;;;;;;;;;;14.90;99.90;;;;;;5047550;28;19940;-71
2022/10/27 03:52:49;;;;;;;;;;;14.80;99.90;;;;;;5066995;28;19920;-73
2022/10/27 03:55:15;;;;;;;;;;;14.70;99.90;;;;;;5066683;28;20282;-73
2022/10/27 03:57:41;;;;;;;;;;;14.70;99.90;;;;;;5067981;28;20726;-72
2022/10/27 04:00:07;;;;;;;;;;;14.70;99.90;;;;;;5048650;28;19913;-71
2022/10/27 04:02:33;;;;;;;;;;;14.60;99.90;;;;;;5067518;28;20059;-73
2022/10/27 04:04:59;;;;;;;;;;;14.60;99.90;;;;;;5051057;28;21526;-72
2022/10/27 04:07:24;;;;;;;;;;;14.50;99.90;;;;;;5056949;28;19919;-69
2022/10/27 04:09:50;;;;;;;;;;;14.50;99.90;;;;;;5051297;28;20644;-71
2022/10/27 04:12:16;;;;;;;;;;;14.60;99.90;;;;;;5066159;28;20424;-71
2022/10/27 04:14:44;;;;;;;;;;;14.60;99.90;;;;;;5064660;28;19912;-72
2022/10/27 04:17:10;;;;;;;;;;;14.60;99.90;;;;;;5065228;28;19920;-71
2022/10/27 04:19:36;;;;;;;;;;;14.60;99.90;;;;;;5064723;28;20467;-73
2022/10/27 04:22:01;;;;;;;;;;;14.60;99.90;;;;;;5066081;28;19920;-72
2022/10/27 04:24:27;;;;;;;;;;;14.60;99.90;;;;;;5063333;28;20478;-69
2022/10/27 04:26:53;;;;;;;;;;;14.60;99.90;;;;;;5055199;28;20298;-72
2022/10/27 04:29:19;;;;;;;;;;;14.60;99.90;;;;;;5085116;28;20337;-71
2022/10/27 04:31:44;;;;;;;;;;;14.60;99.90;;;;;;5089080;28;19969;-72
2022/10/27 04:34:10;;;;;;;;;;;14.60;99.90;;;;;;5066893;28;20629;-72
2022/10/27 04:36:36;;;;;;;;;;;14.50;99.90;;;;;;5066754;28;20294;-71
2022/10/27 04:39:20;;;;;;;;;;;14.50;99.90;;;;;;5065946;28;19915;-75
2022/10/27 04:41:45;;;;;;;;;;;14.60;99.90;;;;;;5081850;28;19912;-72
2022/10/27 04:44:11;;;;;;;;;;;14.60;99.90;;;;;;5080011;28;19939;-71
2022/10/27 04:46:37;;;;;;;;;;;14.60;99.90;;;;;;5077339;28;20287;-72
2022/10/27 04:49:03;;;;;;;;;;;14.60;99.90;;;;;;5083946;28;20421;-72
2022/10/27 04:57:24;;;;;;;;;;;;;;;;;;;;;
2022/10/27 05:00:00;;;;;;;;;;;14.50;99.90;;;;;;5068543;28;20346;-72
2022/10/27 05:05:16;;;;;;;;;;;14.50;99.90;;;;;;5071067;28;19919;-72
2022/10/27 05:07:42;;;;;;;;;;;14.60;99.90;;;;;;5078621;28;19908;-72
2022/10/27 05:10:08;;;;;;;;;;;14.60;99.90;;;;;;5084999;28;19935;-71
2022/10/27 05:12:33;;;;;;;;;;;14.60;99.90;;;;;;5078559;28;19912;-71
2022/10/27 05:14:59;;;;;;;;;;;14.60;99.90;;;;;;5065424;28;20464;-73
2022/10/27 05:17:25;;;;;;;;;;;14.60;99.90;;;;;;5067094;28;19913;-72
2022/10/27 05:19:50;;;;;;;;;;;14.60;99.90;;;;;;5066667;28;19982;-72
2022/10/27 05:22:16;;;;;;;;;;;14.50;99.90;;;;;;5066220;28;19912;-70
2022/10/27 05:24:42;;;;;;;;;;;14.50;99.90;;;;;;5059602;28;19912;-72
2022/10/27 05:27:07;;;;;;;;;;;14.50;99.90;;;;;;5082025;28;20286;-75
2022/10/27 05:29:33;;;;;;;;;;;14.40;99.90;;;;;;5072588;28;19928;-74
2022/10/27 05:31:59;;;;;;;;;;;14.30;99.90;;;;;;5082050;28;20027;-72
2022/10/27 05:34:25;;;;;;;;;;;14.30;99.90;;;;;;5079416;28;19920;-71
2022/10/27 05:36:50;;;;;;;;;;;14.30;99.90;;;;;;5073211;28;19908;-72
2022/10/27 05:39:16;;;;;;;;;;;14.30;99.90;;;;;;5075848;28;20445;-73
2022/10/27 05:41:42;;;;;;;;;;;14.40;99.90;;;;;;5078286;28;20277;-72
2022/10/27 05:44:08;;;;;;;;;;;14.40;99.90;;;;;;5086785;28;20418;-71
2022/10/27 05:46:33;;;;;;;;;;;14.40;99.90;;;;;;5086711;28;19916;-71
2022/10/27 05:48:59;;;;;;;;;;;14.50;99.90;;;;;;5059382;28;19927;-71
2022/10/27 05:51:25;;;;;;;;;;;14.50;99.90;;;;;;5069634;28;20003;-74
2022/10/27 05:53:51;;;;;;;;;;;14.50;99.90;;;;;;5063345;28;19913;-70
2022/10/27 05:56:16;;;;;;;;;;;14.60;99.90;;;;;;5064717;28;19935;-72
2022/10/27 05:58:42;;;;;;;;;;;14.60;99.90;;;;;;5053881;28;20258;-71
2022/10/27 06:01:08;;;;;;;;;;;14.50;99.90;;;;;;5063681;28;19913;-72
2022/10/27 06:03:34;;;;;;;;;;;14.50;99.90;;;;;;5067477;28;20451;-71
2022/10/27 06:06:02;;;;;;;;;;;14.50;99.90;;;;;;5069048;28;19943;-71
2022/10/27 06:08:28;;;;;;;;;;;14.50;99.90;;;;;;5068619;28;19920;-72
2022/10/27 06:10:53;;;;;;;;;;;14.50;99.90;;;;;;5051914;28;19927;-71
2022/10/27 06:13:19;;;;;;;;;;;14.60;99.90;;;;;;5052253;28;20026;-71
2022/10/27 06:15:45;;;;;;;;;;;14.60;99.90;;;;;;5068108;28;19919;-71
2022/10/27 06:18:12;;;;;;;;;;;14.70;99.90;;;;;;5068180;28;19917;-73
2022/10/27 06:20:37;;;;;;;;;;;14.80;99.90;;;;;;5070246;28;19931;-71
2022/10/27 06:23:03;;;;;;;;;;;14.90;99.90;;;;;;5054925;28;19926;-71
2022/10/27 06:25:29;;;;;;;;;;;15.10;99.90;;;;;;5070074;28;19971;-70
2022/10/27 06:27:55;;;;;;;;;;;15.10;99.90;;;;;;5069665;28;19920;-72
2022/10/27 06:30:21;;;;;;;;;;;15.00;99.90;;;;;;5051654;28;19974;-72
2022/10/27 06:32:46;;;;;;;;;;;15.00;99.90;;;;;;5049216;28;19916;-70
2022/10/27 06:35:12;;;;;;;;;;;15.30;99.90;;;;;;5069912;28;19916;-71
2022/10/27 06:37:39;;;;;;;;;;;15.40;99.90;;;;;;5067874;28;19952;-71
2022/10/27 06:40:06;;;;;;;;;;;15.30;99.90;;;;;;5070125;28;19923;-71
2022/10/27 06:42:33;;;;;;;;;;;15.30;99.90;;;;;;5069813;28;21805;-71
2022/10/27 06:44:59;;;;;;;;;;;15.30;99.90;;;;;;5070006;28;19935;-72
2022/10/27 06:47:25;;;;;;;;;;;15.30;99.90;;;;;;5068934;28;20395;-70
2022/10/27 06:49:51;;;;;;;;;;;15.30;99.90;;;;;;5066940;28;19995;-72
2022/10/27 06:52:16;;;;;;;;;;;15.30;99.90;;;;;;5069048;28;19912;-72
2022/10/27 06:54:44;;;;;;;;;;;15.40;99.90;;;;;;5068670;28;19917;-71
2022/10/27 06:57:10;;;;;;;;;;;15.60;99.90;;;;;;5069394;28;19916;-74
2022/10/27 06:59:36;;;;;;;;;;;15.70;99.90;;;;;;5066557;28;19912;-71
2022/10/27 07:02:03;;;;;;;;;;;15.70;99.90;;;;;;5051381;28;20007;-71
2022/10/27 07:04:28;;;;;;;;;;;15.80;99.90;;;;;;5083779;28;19916;-72
2022/10/27 07:07:00;;;;;;;;;;;15.90;99.90;;;;;;5059648;28;19920;-71
2022/10/27 07:09:39;;;;;;;;;;;;;;;;;;;;;
2022/10/27 07:12:05;;;;;;;;;;;16.20;99.90;;;;;;5088357;28;19931;-72
2022/10/27 07:14:31;;;;;;;;;;;16.30;99.90;;;;;;5088710;28;20294;-72
2022/10/27 07:16:57;;;;;;;;;;;16.30;99.90;;;;;;5071625;28;19912;-72
2022/10/27 07:19:23;;;;;;;;;;;16.30;99.90;;;;;;5068125;28;19916;-72
2022/10/27 07:21:49;;;;;;;;;;;16.40;99.90;;;;;;5087800;28;19908;-72
2022/10/27 07:24:36;;;;;;;;;;;16.70;99.90;;;;;;5057127;28;19912;-71
2022/10/27 07:27:02;;;;;;;;;;;16.90;99.90;;;;;;5085369;28;19912;-71
2022/10/27 07:29:28;;;;;;;;;;;17.20;99.90;;;;;;5084901;28;19916;-71
2022/10/27 07:38:06;;;;;;;;;;;17.30;99.90;;;;;;5007442;28;20542;-70
2022/10/27 07:44:06;;;;;;;;;;;17.20;99.90;;;;;;5017584;28;19925;-72
2022/10/27 07:46:38;;;;;;;;;;;17.20;99.90;;;;;;5049958;28;19961;-71
2022/10/27 07:52:07;;;;;;;;;;;17.40;99.90;;;;;;5087670;28;20309;-70
2022/10/27 07:54:34;;;;;;;;;;;17.40;99.90;;;;;;5086440;28;19912;-72
2022/10/27 07:56:59;;;;;;;;;;;17.50;99.90;;;;;;5074910;28;19913;-72
2022/10/27 07:59:25;;;;;;;;;;;17.50;99.90;;;;;;5085733;28;20009;-71
2022/10/27 08:01:51;;;;;;;;;;;17.60;99.90;;;;;;5058735;28;19912;-72
2022/10/27 08:04:16;;;;;;;;;;;17.60;99.90;;;;;;5086309;28;19998;-70
2022/10/27 08:06:42;;;;;;;;;;;17.70;99.90;;;;;;5076714;28;19934;-75
2022/10/27 08:09:08;;;;;;;;;;;17.70;99.90;;;;;;5081987;28;19916;-73
2022/10/27 08:11:34;;;;;;;;;;;17.80;99.90;;;;;;5075118;28;20004;-73
2022/10/27 08:14:00;;;;;;;;;;;17.90;99.90;;;;;;5062316;28;19943;-75
2022/10/27 08:16:25;;;;;;;;;;;18.00;99.90;;;;;;5083297;28;19913;-72
2022/10/27 08:18:51;;;;;;;;;;;18.10;99.90;;;;;;5057480;28;19919;-73
2022/10/27 08:21:20;;;;;;;;;;;18.20;99.90;;;;;;5083331;28;19912;-71
2022/10/27 08:23:46;;;;;;;;;;;18.20;99.90;;;;;;5081148;28;19912;-72
2022/10/27 08:26:11;;;;;;;;;;;18.30;99.90;;;;;;5084880;28;19918;-72
2022/10/27 08:28:37;;;;;;;;;;;18.40;99.90;;;;;;5084515;28;19949;-73
2022/10/27 08:31:03;;;;;;;;;;;18.50;99.90;;;;;;5073744;28;19924;-73
2022/10/27 08:33:29;;;;;;;;;;;18.60;99.90;;;;;;5084721;28;19908;-73
2022/10/27 08:35:54;;;;;;;;;;;18.70;99.90;;;;;;5083021;28;19917;-73
2022/10/27 08:38:20;;;;;;;;;;;18.80;99.90;;;;;;5074206;28;19919;-70
2022/10/27 08:40:52;;;;;;;;;;;18.80;99.90;;;;;;5074385;28;19928;-73
2022/10/27 08:43:33;;;;;;;;;;;18.90;99.90;;;;;;5068410;28;19964;-74
2022/10/27 08:46:05;;;;;;;;;;;18.90;99.90;;;;;;5066367;28;20396;-74
2022/10/27 08:48:32;;;;;;;;;;;19.00;99.90;;;;;;5078078;28;19916;-73
2022/10/27 08:50:58;;;;;;;;;;;19.10;99.90;;;;;;5080841;28;19974;-73
2022/10/27 08:53:28;;;;;;;;;;;19.20;99.90;;;;;;5072585;28;19921;-76
2022/10/27 08:55:56;;;;;;;;;;;19.20;99.90;;;;;;5065458;28;19919;-74
2022/10/27 08:58:25;;;;;;;;;;;19.30;99.90;;;;;;5077995;28;19928;-74
2022/10/27 09:00:55;;;;;;;;;;;19.40;99.90;;;;;;5068041;28;19912;-74
2022/10/27 09:03:36;;;;;;;;;;;19.30;99.90;;;;;;5068134;28;19912;-74
2022/10/27 09:06:13;;;;;;;;;;;19.40;99.90;;;;;;5062816;28;19919;-74
2022/10/27 09:08:39;;;;;;;;;;;19.50;99.90;;;;;;5059711;28;19918;-74
2022/10/27 09:11:23;;;;;;;;;;;19.50;99.90;;;;;;5080750;28;19986;-74
2022/10/27 09:13:56;;;;;;;;;;;19.50;99.90;;;;;;5085331;28;19931;-73
2022/10/27 09:16:32;;;;;;;;;;;19.50;99.90;;;;;;5073930;28;19972;-73
2022/10/27 09:18:59;;;;;;;;;;;19.50;99.90;;;;;;5071826;28;19935;-72
2022/10/27 09:21:26;;;;;;;;;;;19.50;99.90;;;;;;5081410;28;19915;-72
2022/10/27 09:23:53;;;;;;;;;;;19.50;99.90;;;;;;5076994;28;19940;-73
2022/10/27 09:26:24;;;;;;;;;;;19.50;99.90;;;;;;5080392;28;19912;-72
2022/10/27 09:28:56;;;;;;;;;;;19.40;99.90;;;;;;5080600;28;19945;-73
2022/10/27 09:31:31;;;;;;;;;;;19.40;99.90;;;;;;5075576;28;19952;-73
2022/10/27 09:34:00;;;;;;;;;;;19.40;99.90;;;;;;5080966;28;19959;-72
2022/10/27 09:36:25;;;;;;;;;;;19.40;99.90;;;;;;5084862;28;19912;-71
2022/10/27 09:38:51;;;;;;;;;;;19.60;99.90;;;;;;5082673;28;19955;-71
2022/10/27 09:41:17;;;;;;;;;;;19.60;99.90;;;;;;5086987;28;19987;-74
2022/10/27 09:43:43;;;;;;;;;;;19.70;99.90;;;;;;5068036;28;19917;-74
2022/10/27 09:46:31;;;;;;;;;;;19.80;99.90;;;;;;5076891;28;19924;-76
2022/10/27 09:49:06;;;;;;;;;;;19.70;99.90;;;;;;5075509;28;19912;-71
2022/10/27 09:51:43;;;;;;;;;;;19.80;99.90;;;;;;5082802;28;19920;-71
2022/10/27 09:54:29;;;;;;;;;;;19.90;99.90;;;;;;5076749;28;19908;-70
2022/10/27 09:56:55;;;;;;;;;;;19.90;99.90;;;;;;5085143;28;20394;-71
2022/10/27 09:59:22;;;;;;;;;;;19.90;99.90;;;;;;5081256;28;19981;-73
2022/10/27 10:01:54;;;;;;;;;;;19.90;99.90;;;;;;5091994;28;19912;-71
2022/10/27 10:04:21;;;;;;;;;;;20.00;99.90;;;;;;5075814;28;19958;-71
2022/10/27 10:06:54;;;;;;;;;;;20.00;99.90;;;;;;5085919;28;20370;-70
2022/10/27 10:09:23;;;;;;;;;;;19.90;99.90;;;;;;5078025;28;20378;-71
2022/10/27 10:11:49;;;;;;;;;;;20.00;99.90;;;;;;5079068;28;19913;-71
2022/10/27 10:14:22;;;;;;;;;;;20.00;99.90;;;;;;5083601;28;19912;-72
2022/10/27 10:16:48;;;;;;;;;;;20.00;99.90;;;;;;5082847;28;19966;-71
2022/10/27 10:19:18;;;;;;;;;;;20.00;99.90;;;;;;5087923;28;19927;-71
2022/10/27 10:21:50;;;;;;;;;;;20.00;99.90;;;;;;5078893;28;19935;-69
2022/10/27 10:24:19;;;;;;;;;;;20.00;99.90;;;;;;5093360;28;20294;-72
2022/10/27 10:26:47;;;;;;;;;;;20.00;99.90;;;;;;5064299;28;19912;-70
2022/10/27 10:29:26;;;;;;;;;;;20.00;99.90;;;;;;5088311;28;20011;-71
2022/10/27 10:32:07;;;;;;;;;;;20.10;99.90;;;;;;5068042;28;19912;-71
2022/10/27 10:34:33;;;;;;;;;;;20.00;99.90;;;;;;5089616;28;19942;-71
2022/10/27 10:36:59;;;;;;;;;;;20.10;99.90;;;;;;5084494;28;20017;-71
2022/10/27 10:39:29;;;;;;;;;;;20.20;99.90;;;;;;5077754;28;19912;-70
2022/10/27 10:42:10;;;;;;;;;;;20.20;99.90;;;;;;5094724;28;19916;-70
2022/10/27 10:44:36;;;;;;;;;;;20.20;99.90;;;;;;5075605;28;19912;-70
2022/10/27 10:47:02;;;;;;;;;;;20.20;99.90;;;;;;5089472;28;19916;-74
2022/10/27 10:49:31;;;;;;;;;;;20.10;99.90;;;;;;5080625;28;19916;-71
2022/10/27 10:52:15;;;;;;;;;;;20.10;99.90;;;;;;5094374;28;20006;-70
2022/10/27 10:54:43;;;;;;;;;;;20.20;99.90;;;;;;5080856;28;19920;-70
2022/10/27 10:57:27;;;;;;;;;;;20.20;99.90;;;;;;5076150;28;20010;-71
2022/10/27 10:59:54;;;;;;;;;;;20.10;99.90;;;;;;5076861;28;19916;-72
2022/10/27 11:02:26;;;;;;;;;;;20.10;99.90;;;;;;5058508;28;20019;-71
2022/10/27 11:04:52;;;;;;;;;;;20.10;99.90;;;;;;5070355;28;20365;-70
2022/10/27 11:07:31;;;;;;;;;;;20.20;99.90;;;;;;5078122;28;19909;-70
2022/10/27 11:10:03;;;;;;;;;;;20.10;99.90;;;;;;5067756;28;20392;-69
2022/10/27 11:12:28;;;;;;;;;;;20.20;99.90;;;;;;5076451;28;19968;-72
2022/10/27 11:14:56;;;;;;;;;;;20.20;99.90;;;;;;5057849;28;19912;-71
2022/10/27 11:17:23;;;;;;;;;;;20.20;99.90;;;;;;5077710;28;19908;-71
2022/10/27 11:19:49;;;;;;;;;;;20.30;99.90;;;;;;5083094;28;19974;-71
2022/10/27 11:22:17;;;;;;;;;;;20.30;99.90;;;;;;5051896;28;19915;-70
2022/10/27 11:24:46;;;;;;;;;;;20.30;99.90;;;;;;5073921;28;19912;-70
2022/10/27 11:27:12;;;;;;;;;;;20.50;99.90;;;;;;5084822;28;19911;-71
2022/10/27 11:29:41;;;;;;;;;;;20.50;99.90;;;;;;5079590;28;19917;-71
2022/10/27 11:32:13;;;;;;;;;;;20.50;99.90;;;;;;5084646;28;19944;-71
2022/10/27 11:34:57;;;;;;;;;;;20.50;99.90;;;;;;5076336;28;20378;-72
2022/10/27 11:37:43;;;;;;;;;;;20.40;99.90;;;;;;5077433;28;19912;-71
2022/10/27 11:40:12;;;;;;;;;;;20.40;99.90;;;;;;5048837;28;19923;-71
2022/10/27 11:42:42;;;;;;;;;;;20.40;99.90;;;;;;5082836;28;19988;-73
2022/10/27 11:45:15;;;;;;;;;;;20.50;99.90;;;;;;5085227;28;19984;-69
2022/10/27 11:47:50;;;;;;;;;;;20.50;99.90;;;;;;5076716;28;19939;-71
2022/10/27 11:50:23;;;;;;;;;;;20.60;99.90;;;;;;5065144;28;19923;-71
2022/10/27 11:52:50;;;;;;;;;;;20.70;99.90;;;;;;5061569;28;19913;-71
2022/10/27 11:55:18;;;;;;;;;;;20.70;99.90;;;;;;5077045;28;19924;-70
2022/10/27 11:58:04;;;;;;;;;;;20.90;99.90;;;;;;5081944;28;19913;-70
2022/10/27 12:00:35;;;;;;;;;;;20.80;99.90;;;;;;5071483;28;19912;-70
2022/10/27 12:03:04;;;;;;;;;;;20.90;99.90;;;;;;5065384;28;19921;-71
2022/10/27 12:05:39;;;;;;;;;;;20.80;99.90;;;;;;5070669;28;19982;-69
2022/10/27 12:08:12;;;;;;;;;;;20.90;99.90;;;;;;5063463;28;19960;-70
2022/10/27 12:10:59;;;;;;;;;;;20.90;99.90;;;;;;5069978;28;20401;-71
2022/10/27 12:13:32;;;;;;;;;;;20.70;99.90;;;;;;5069450;28;19912;-71
2022/10/27 12:16:06;;;;;;;;;;;20.70;99.90;;;;;;5079142;28;19912;-71
2022/10/27 12:19:03;;;;;;;;;;;20.70;99.90;;;;;;5074949;28;19959;-71
2022/10/27 12:21:47;;;;;;;;;;;;;;;;;;;;;
2022/10/27 12:24:20;;;;;;;;;;;20.70;99.90;;;;;;5076074;28;19927;-71
2022/10/27 12:26:52;;;;;;;;;;;20.70;99.90;;;;;;5070502;28;19913;-70
2022/10/27 12:29:18;;;;;;;;;;;20.60;99.90;;;;;;5065104;28;20349;-69
2022/10/27 12:31:49;;;;;;;;;;;20.70;99.90;;;;;;5071492;28;19919;-71
2022/10/27 12:34:15;;;;;;;;;;;20.70;99.90;;;;;;5074922;28;19967;-71
2022/10/27 12:40:12;;;;;;;;;;;20.80;99.90;;;;;;5079981;28;19983;-71
2022/10/27 12:42:41;;;;;;;;;;;20.90;99.90;;;;;;5079662;28;19966;-70
2022/10/27 12:45:25;;;;;;;;;;;21.00;99.90;;;;;;5084096;28;19947;-71
2022/10/27 12:47:53;;;;;;;;;;;21.00;99.90;;;;;;5085894;28;19912;-70
2022/10/27 12:50:52;;;;;;;;;;;21.00;99.90;;;;;;5080181;28;19916;-72
2022/10/27 12:53:36;;;;;;;;;;;21.10;99.90;;;;;;5071108;28;19908;-71
2022/10/27 12:56:04;;;;;;;;;;;21.20;99.90;;;;;;5082471;28;20386;-71
2022/10/27 13:01:42;;;;;;;;;;;21.50;99.90;;;;;;5077584;28;19994;-71
2022/10/27 13:04:33;;;;;;;;;;;21.60;99.90;;;;;;5075955;28;19913;-71
2022/10/27 13:07:07;;;;;;;;;;;21.80;99.90;;;;;;5091388;28;19915;-72
2022/10/27 13:10:08;;;;;;;;;;;21.90;99.90;;;;;;5083977;28;20367;-72
2022/10/27 13:12:39;;;;;;;;;;;21.90;99.90;;;;;;5079934;28;20008;-72
2022/10/27 13:15:19;;;;;;;;;;;22.00;99.90;;;;;;5065126;28;19913;-72
2022/10/27 13:17:51;;;;;;;;;;;22.10;99.90;;;;;;5083677;28;19958;-71
2022/10/27 13:20:35;;;;;;;;;;;22.10;99.90;;;;;;5065058;28;19912;-71
2022/10/27 13:23:04;;;;;;;;;;;22.00;99.90;;;;;;5075198;28;19959;-71
2022/10/27 13:25:30;;;;;;;;;;;22.10;99.90;;;;;;5083504;28;19916;-72
2022/10/27 13:27:56;;;;;;;;;;;22.10;99.90;;;;;;5077100;28;20397;-72
2022/10/27 13:30:23;;;;;;;;;;;22.00;99.90;;;;;;5085820;28;19986;-74
2022/10/27 13:32:48;;;;;;;;;;;21.90;99.90;;;;;;5090222;28;19912;-72
2022/10/27 13:35:14;;;;;;;;;;;21.80;99.90;;;;;;5081305;28;19912;-72
2022/10/27 13:37:57;;;;;;;;;;;21.80;99.90;;;;;;5089471;28;19961;-71
2022/10/27 13:40:26;;;;;;;;;;;21.80;99.90;;;;;;5081526;28;20393;-72
2022/10/27 13:43:14;;;;;;;;;;;21.90;99.90;;;;;;5058322;28;19908;-71
2022/10/27 13:45:40;;;;;;;;;;;21.80;99.90;;;;;;5080943;28;19920;-72
2022/10/27 13:48:06;;;;;;;;;;;21.80;99.90;;;;;;5084524;28;19916;-71
2022/10/27 13:50:35;;;;;;;;;;;21.70;99.90;;;;;;5075676;28;19968;-71
2022/10/27 13:53:13;;;;;;;;;;;21.70;99.90;;;;;;5078046;28;19919;-72
2022/10/27 13:55:46;;;;;;;;;;;21.70;99.90;;;;;;5063261;28;19931;-72
2022/10/27 13:58:25;;;;;;;;;;;21.70;99.90;;;;;;5083807;28;19973;-72
2022/10/27 14:01:09;;;;;;;;;;;21.70;99.90;;;;;;5083994;28;19923;-71
2022/10/27 14:03:37;;;;;;;;;;;21.80;99.90;;;;;;5079679;28;20335;-71
2022/10/27 14:06:09;;;;;;;;;;;21.70;99.90;;;;;;5083622;28;19928;-72
2022/10/27 14:08:46;;;;;;;;;;;21.60;99.90;;;;;;5062260;28;19962;-71
2022/10/27 14:11:15;;;;;;;;;;;21.50;99.90;;;;;;5080574;28;20294;-71
2022/10/27 14:13:46;;;;;;;;;;;21.40;99.90;;;;;;5066714;28;19965;-73
2022/10/27 14:16:18;;;;;;;;;;;21.30;99.90;;;;;;5082279;28;19916;-72
2022/10/27 14:18:57;;;;;;;;;;;21.30;99.90;;;;;;5084248;28;19939;-70
2022/10/27 14:21:23;;;;;;;;;;;21.20;99.90;;;;;;5077982;28;19975;-71
2022/10/27 14:23:52;;;;;;;;;;;21.20;99.90;;;;;;5055430;28;19982;-74
2022/10/27 14:26:21;;;;;;;;;;;21.20;99.90;;;;;;5087069;28;19988;-72
2022/10/27 14:28:47;;;;;;;;;;;21.20;99.90;;;;;;5084874;28;20355;-71
2022/10/27 14:31:20;;;;;;;;;;;21.20;99.90;;;;;;5061603;28;19924;-70
2022/10/27 14:33:46;;;;;;;;;;;21.20;99.90;;;;;;5083903;28;20263;-71
2022/10/27 14:36:28;;;;;;;;;;;21.20;99.90;;;;;;5070437;28;19912;-72
2022/10/27 14:39:02;;;;;;;;;;;21.10;99.90;;;;;;5069086;28;19919;-72
2022/10/27 14:41:32;;;;;;;;;;;21.20;99.90;;;;;;5087704;28;19919;-72
2022/10/27 14:44:00;;;;;;;;;;;21.30;99.90;;;;;;5087000;28;19930;-71
2022/10/27 14:46:31;;;;;;;;;;;21.20;99.90;;;;;;5079714;28;19921;-71
2022/10/27 14:48:59;;;;;;;;;;;21.20;99.90;;;;;;5073863;28;19936;-70
2022/10/27 14:51:25;;;;;;;;;;;21.20;99.90;;;;;;5071012;28;19923;-72
2022/10/27 14:53:52;;;;;;;;;;;21.10;99.90;;;;;;5088772;28;19952;-70
2022/10/27 14:56:19;;;;;;;;;;;21.00;99.90;;;;;;5090082;28;19920;-72
2022/10/27 14:58:55;;;;;;;;;;;20.90;99.90;;;;;;5085932;28;19915;-72
2022/10/27 15:01:34;;;;;;;;;;;21.00;99.90;;;;;;5070741;28;19931;-73
2022/10/27 15:04:12;;;;;;;;;;;21.00;99.90;;;;;;5068750;28;19916;-72
2022/10/27 15:06:42;;;;;;;;;;;21.00;99.90;;;;;;5060231;28;19951;-72